createdAt,value
2023-11-07T00:00:00.271Z, 0
2023-11-07T00:02:00.117Z, 0
2023-11-07T00:04:00.202Z, 0
2023-11-07T00:06:00.223Z, 0
2023-11-07T00:08:00.101Z, 0
2023-11-07T00:10:00.132Z, 0
2023-11-07T00:12:00.152Z, 0
2023-11-07T00:14:00.144Z, 0
2023-11-07T00:16:00.112Z, 0
2023-11-07T00:18:00.340Z, 0
2023-11-07T00:20:00.851Z, 0
2023-11-07T00:22:00.114Z, 0
2023-11-07T00:24:00.143Z, 0
2023-11-07T00:26:00.137Z, 0
2023-11-07T00:28:00.101Z, 0
2023-11-07T00:30:00.212Z, 0
2023-11-07T00:32:00.110Z, 0
2023-11-07T00:34:00.221Z, 0
2023-11-07T00:36:00.168Z, 0
2023-11-07T00:38:00.119Z, 0
2023-11-07T00:40:00.135Z, 0
2023-11-07T00:42:00.159Z, 0
2023-11-07T00:44:00.107Z, 0
2023-11-07T00:46:00.165Z, 0
2023-11-07T00:48:00.263Z, 0
2023-11-07T00:50:00.140Z, 0
2023-11-07T00:52:00.123Z, 0
2023-11-07T00:54:00.392Z, 0
2023-11-07T00:56:00.088Z, 0
2023-11-07T00:58:00.102Z, 0
2023-11-07T01:00:00.235Z, 0
2023-11-07T01:02:00.122Z, 0
2023-11-07T01:04:00.310Z, 0
2023-11-07T01:06:00.491Z, 0
2023-11-07T01:08:00.129Z, 0
2023-11-07T01:10:00.123Z, 0
2023-11-07T01:12:00.137Z, 0
2023-11-07T01:14:00.125Z, 0
2023-11-07T01:16:00.140Z, 0
2023-11-07T01:18:00.352Z, 0
2023-11-07T01:20:00.167Z, 0
2023-11-07T01:22:00.102Z, 0
2023-11-07T01:24:00.250Z, 0
2023-11-07T01:26:00.095Z, 0
2023-11-07T01:28:00.093Z, 0
2023-11-07T01:30:00.269Z, 0
2023-11-07T01:32:00.133Z, 0
2023-11-07T01:34:00.245Z, 0
2023-11-07T01:36:00.141Z, 0
2023-11-07T01:38:00.098Z, 0
2023-11-07T01:40:00.143Z, 0
2023-11-07T01:42:00.166Z, 0
2023-11-07T01:44:00.112Z, 0
2023-11-07T01:46:00.108Z, 0
2023-11-07T01:48:00.248Z, 0
2023-11-07T01:50:00.171Z, 0
2023-11-07T01:52:00.113Z, 0
2023-11-07T01:54:00.141Z, 0
2023-11-07T01:56:00.112Z, 0
2023-11-07T01:58:00.106Z, 0
2023-11-07T02:00:00.205Z, 0
2023-11-07T02:02:00.118Z, 0
2023-11-07T02:04:00.279Z, 0
2023-11-07T02:06:00.143Z, 0
2023-11-07T02:08:00.101Z, 0
2023-11-07T02:10:00.123Z, 0
2023-11-07T02:12:00.122Z, 0
2023-11-07T02:14:00.124Z, 0
2023-11-07T02:16:00.103Z, 0
2023-11-07T02:18:00.184Z, 0
2023-11-07T02:20:00.173Z, 0
2023-11-07T02:22:00.122Z, 0
2023-11-07T02:24:00.195Z, 0
2023-11-07T02:26:00.114Z, 0
2023-11-07T02:28:00.102Z, 0
2023-11-07T02:30:00.215Z, 0
2023-11-07T02:32:00.122Z, 0
2023-11-07T02:34:00.173Z, 0
2023-11-07T02:36:00.161Z, 0
2023-11-07T02:38:00.116Z, 0
2023-11-07T02:40:00.122Z, 0
2023-11-07T02:42:00.156Z, 0
2023-11-07T02:44:00.100Z, 0
2023-11-07T02:46:00.107Z, 0
2023-11-07T02:48:00.237Z, 0
2023-11-07T02:50:00.127Z, 0
2023-11-07T02:52:00.127Z, 0
2023-11-07T02:54:00.216Z, 0
2023-11-07T02:56:00.102Z, 0
2023-11-07T02:58:00.108Z, 0
2023-11-07T03:00:00.264Z, 0
2023-11-07T03:02:00.111Z, 0
2023-11-07T03:04:00.255Z, 0
2023-11-07T03:06:00.222Z, 0
2023-11-07T03:08:00.176Z, 0
2023-11-07T03:10:00.141Z, 0
2023-11-07T03:12:00.180Z, 0
2023-11-07T03:14:00.110Z, 0
2023-11-07T03:16:00.115Z, 0
2023-11-07T03:18:00.239Z, 0
2023-11-07T03:20:00.168Z, 0
2023-11-07T03:22:00.180Z, 0
2023-11-07T03:24:00.168Z, 0
2023-11-07T03:26:00.578Z, 0
2023-11-07T03:28:00.093Z, 0
2023-11-07T03:30:00.267Z, 0
2023-11-07T03:32:00.110Z, 0
2023-11-07T03:34:00.193Z, 0
2023-11-07T03:36:00.177Z, 0
2023-11-07T03:38:00.108Z, 0
2023-11-07T03:40:00.223Z, 0
2023-11-07T03:42:00.145Z, 0
2023-11-07T03:44:00.129Z, 0
2023-11-07T03:46:00.101Z, 0
2023-11-07T03:48:00.275Z, 0
2023-11-07T03:50:00.132Z, 0
2023-11-07T03:52:00.097Z, 0
2023-11-07T03:54:00.159Z, 0
2023-11-07T03:56:00.149Z, 0
2023-11-07T03:58:00.119Z, 0
2023-11-07T04:00:00.237Z, 0
2023-11-07T04:02:00.102Z, 0
2023-11-07T04:04:00.176Z, 0
2023-11-07T04:06:00.254Z, 0
2023-11-07T04:08:00.096Z, 0
2023-11-07T04:10:00.108Z, 0
2023-11-07T04:12:00.180Z, 0
2023-11-07T04:14:00.093Z, 0
2023-11-07T04:16:00.108Z, 0
2023-11-07T04:18:00.346Z, 0
2023-11-07T04:20:00.140Z, 0
2023-11-07T04:22:00.088Z, 0
2023-11-07T04:24:00.212Z, 0
2023-11-07T04:26:00.095Z, 0
2023-11-07T04:28:00.535Z, 0
2023-11-07T04:30:00.264Z, 0
2023-11-07T04:32:00.138Z, 0
2023-11-07T04:34:00.253Z, 0
2023-11-07T04:36:00.233Z, 0
2023-11-07T04:38:00.446Z, 0
2023-11-07T04:40:00.221Z, 0
2023-11-07T04:42:00.241Z, 0
2023-11-07T04:44:00.145Z, 0
2023-11-07T04:46:00.113Z, 0
2023-11-07T04:48:00.299Z, 0
2023-11-07T04:50:00.277Z, 0
2023-11-07T04:52:02.524Z, 0
2023-11-07T04:54:00.173Z, 0
2023-11-07T04:56:00.137Z, 0
2023-11-07T04:58:00.095Z, 0
2023-11-07T05:00:00.261Z, 0
2023-11-07T05:02:00.102Z, 0
2023-11-07T05:04:00.250Z, 0
2023-11-07T05:06:00.230Z, 0
2023-11-07T05:08:00.100Z, 0
2023-11-07T05:10:00.211Z, 0
2023-11-07T05:12:00.204Z, 0
2023-11-07T05:14:00.112Z, 0
2023-11-07T05:16:00.129Z, 0
2023-11-07T05:18:00.294Z, 0
2023-11-07T05:20:00.136Z, 0
2023-11-07T05:22:00.143Z, 0
2023-11-07T05:24:00.180Z, 0
2023-11-07T05:26:00.126Z, 0
2023-11-07T05:28:00.162Z, 0
2023-11-07T05:30:00.171Z, 0
2023-11-07T05:32:00.122Z, 0
2023-11-07T05:34:00.197Z, 0
2023-11-07T05:36:00.159Z, 0
2023-11-07T05:38:00.149Z, 0
2023-11-07T05:40:00.160Z, 0
2023-11-07T05:42:00.225Z, 0
2023-11-07T05:44:00.128Z, 0
2023-11-07T05:46:00.110Z, 0
2023-11-07T05:48:00.470Z, 0
2023-11-07T05:50:00.148Z, 0
2023-11-07T05:52:00.116Z, 0
2023-11-07T05:54:00.198Z, 0
2023-11-07T05:56:00.119Z, 1
2023-11-07T05:58:00.114Z, 3
2023-11-07T06:00:00.366Z, 5
2023-11-07T06:02:00.154Z, 10
2023-11-07T06:04:00.197Z, 15
2023-11-07T06:06:00.303Z, 21
2023-11-07T06:08:00.116Z, 29
2023-11-07T06:10:00.173Z, 35
2023-11-07T06:12:00.163Z, 49
2023-11-07T06:14:00.109Z, 65
2023-11-07T06:16:00.124Z, 91
2023-11-07T06:18:00.180Z, 112
2023-11-07T06:20:00.155Z, 137
2023-11-07T06:22:00.090Z, 167
2023-11-07T06:24:00.232Z, 210
2023-11-07T06:26:00.101Z, 261
2023-11-07T06:28:00.126Z, 290
2023-11-07T06:30:00.237Z, 338
2023-11-07T06:32:00.096Z, 389
2023-11-07T06:34:00.267Z, 462
2023-11-07T06:36:00.182Z, 502
2023-11-07T06:38:00.120Z, 560
2023-11-07T06:40:00.105Z, 686
2023-11-07T06:42:00.151Z, 768
2023-11-07T06:44:00.128Z, 877
2023-11-07T06:46:00.112Z, 1000
2023-11-07T06:48:00.282Z, 1133
2023-11-07T06:50:00.137Z, 1288
2023-11-07T06:52:00.152Z, 1493
2023-11-07T06:54:00.181Z, 1755
2023-11-07T06:56:00.147Z, 1895
2023-11-07T06:58:00.113Z, 1920
2023-11-07T07:00:00.195Z, 1897
2023-11-07T07:02:00.154Z, 1886
2023-11-07T07:04:00.289Z, 1923
2023-11-07T07:06:00.276Z, 2004
2023-11-07T07:08:00.131Z, 2570
2023-11-07T07:10:00.151Z, 3038
2023-11-07T07:12:00.130Z, 3590
2023-11-07T07:14:00.193Z, 4300
2023-11-07T07:16:00.113Z, 4647
2023-11-07T07:18:00.250Z, 4503
2023-11-07T07:20:00.156Z, 4192
2023-11-07T07:22:00.103Z, 3582
2023-11-07T07:24:00.217Z, 3082
2023-11-07T07:26:00.123Z, 3090
2023-11-07T07:28:00.103Z, 2980
2023-11-07T07:30:00.203Z, 2640
2023-11-07T07:32:00.144Z, 2540
2023-11-07T07:34:00.150Z, 2548
2023-11-07T07:36:00.170Z, 2491
2023-11-07T07:38:00.295Z, 2370
2023-11-07T07:40:00.125Z, 2305
2023-11-07T07:42:00.242Z, 2241
2023-11-07T07:44:00.117Z, 2250
2023-11-07T07:46:00.108Z, 2295
2023-11-07T07:48:00.326Z, 2315
2023-11-07T07:50:00.160Z, 2230
2023-11-07T07:52:00.145Z, 2441
2023-11-07T07:54:00.215Z, 2950
2023-11-07T07:56:00.174Z, 3665
2023-11-07T07:58:00.106Z, 4310
2023-11-07T08:00:00.198Z, 4713
2023-11-07T08:02:00.175Z, 5127
2023-11-07T08:04:00.256Z, 5535
2023-11-07T08:06:00.190Z, 5815
2023-11-07T08:08:00.091Z, 5865
2023-11-07T08:10:00.145Z, 5850
2023-11-07T08:12:00.212Z, 5689
2023-11-07T08:14:00.099Z, 5348
2023-11-07T08:16:00.126Z, 5043
2023-11-07T08:18:00.225Z, 5145
2023-11-07T08:20:00.158Z, 5167
2023-11-07T08:22:01.869Z, 5029
2023-11-07T08:24:00.130Z, 4814
2023-11-07T08:26:00.112Z, 4552
2023-11-07T08:28:00.153Z, 4707
2023-11-07T08:30:00.195Z, 3951
2023-11-07T08:32:00.087Z, 4366
2023-11-07T08:34:00.327Z, 4580
2023-11-07T08:36:00.433Z, 4874
2023-11-07T08:38:00.102Z, 5280
2023-11-07T08:40:00.116Z, 6020
2023-11-07T08:42:00.169Z, 7130
2023-11-07T08:44:00.140Z, 8770
2023-11-07T08:46:00.107Z, 10136
2023-11-07T08:48:00.186Z, 9646
2023-11-07T08:50:00.155Z, 10627
2023-11-07T08:52:00.136Z, 11437
2023-11-07T08:54:00.161Z, 11147
2023-11-07T08:56:00.120Z, 11095
2023-11-07T08:58:00.106Z, 10357
2023-11-07T09:00:00.234Z, 10179
2023-11-07T09:02:00.147Z, 8960
2023-11-07T09:04:00.248Z, 8970
2023-11-07T09:06:00.165Z, 7171
2023-11-07T09:08:00.171Z, 5173
2023-11-07T09:10:00.137Z, 5253
2023-11-07T09:12:00.181Z, 4420
2023-11-07T09:14:00.103Z, 4242
2023-11-07T09:16:00.114Z, 4614
2023-11-07T09:18:00.196Z, 4155
2023-11-07T09:20:00.132Z, 5051
2023-11-07T09:22:00.099Z, 5155
2023-11-07T09:24:00.224Z, 4623
2023-11-07T09:26:00.110Z, 3930
2023-11-07T09:28:00.112Z, 4040
2023-11-07T09:30:00.216Z, 3986
2023-11-07T09:32:00.104Z, 4211
2023-11-07T09:34:00.266Z, 4447
2023-11-07T09:36:00.178Z, 6906
2023-11-07T09:38:00.111Z, 9001
2023-11-07T09:40:00.206Z, 10217
2023-11-07T09:42:00.162Z, 10773
2023-11-07T09:44:00.152Z, 11100
2023-11-07T09:46:00.100Z, 11182
2023-11-07T09:48:00.337Z, 11636
2023-11-07T09:50:00.122Z, 11933
2023-11-07T09:52:00.094Z, 11765
2023-11-07T09:54:00.153Z, 11807
2023-11-07T09:56:00.125Z, 12346
2023-11-07T09:58:09.293Z, 12528
2023-11-07T10:00:00.225Z, 11915
2023-11-07T10:02:00.111Z, 12261
2023-11-07T10:04:00.347Z, 12453
2023-11-07T10:06:00.170Z, 11506
2023-11-07T10:08:00.138Z, 10355
2023-11-07T10:10:00.217Z, 8541
2023-11-07T10:12:00.167Z, 6666
2023-11-07T10:14:00.116Z, 4995
2023-11-07T10:16:06.723Z, 5892
2023-11-07T10:18:00.573Z, 6635
2023-11-07T10:20:00.131Z, 8213
2023-11-07T10:22:00.097Z, 6857
2023-11-07T10:24:00.180Z, 5579
2023-11-07T10:26:00.104Z, 4795
2023-11-07T10:28:00.129Z, 4065
2023-11-07T10:30:00.642Z, 6003
2023-11-07T10:32:00.176Z, 5539
2023-11-07T10:34:00.207Z, 5565
2023-11-07T10:36:00.864Z, 6350
2023-11-07T10:38:00.104Z, 5838
2023-11-07T10:40:00.148Z, 5404
2023-11-07T10:42:00.180Z, 9837
2023-11-07T10:44:00.151Z, 13164
2023-11-07T10:46:00.104Z, 12940
2023-11-07T10:48:00.258Z, 14666
2023-11-07T10:50:00.175Z, 14493
2023-11-07T10:52:00.142Z, 12581
2023-11-07T10:54:00.207Z, 9705
2023-11-07T10:56:00.106Z, 7041
2023-11-07T10:58:00.104Z, 7275
2023-11-07T11:00:00.278Z, 7586
2023-11-07T11:02:00.103Z, 6197
2023-11-07T11:04:00.202Z, 5074
2023-11-07T11:06:00.193Z, 5664
2023-11-07T11:08:00.107Z, 7813
2023-11-07T11:10:00.383Z, 8482
2023-11-07T11:12:00.158Z, 9356
2023-11-07T11:14:00.112Z, 10417
2023-11-07T11:16:00.125Z, 11816
2023-11-07T11:18:00.219Z, 13215
2023-11-07T11:20:00.285Z, 11730
2023-11-07T11:22:00.120Z, 9435
2023-11-07T11:24:00.118Z, 9060
2023-11-07T11:26:00.106Z, 9751
2023-11-07T11:28:00.130Z, 10131
2023-11-07T11:30:00.182Z, 9220
2023-11-07T11:32:00.159Z, 8600
2023-11-07T11:34:00.198Z, 7945
2023-11-07T11:36:00.179Z, 5738
2023-11-07T11:38:00.126Z, 3653
2023-11-07T11:40:00.185Z, 2728
2023-11-07T11:42:00.203Z, 2796
2023-11-07T11:44:00.111Z, 2902
2023-11-07T11:46:00.507Z, 4196
2023-11-07T11:48:00.225Z, 4419
2023-11-07T11:50:00.158Z, 6615
2023-11-07T11:52:00.089Z, 8320
2023-11-07T11:54:00.211Z, 10423
2023-11-07T11:56:00.094Z, 12790
2023-11-07T11:58:00.090Z, 14294
2023-11-07T12:00:00.269Z, 15095
2023-11-07T12:02:00.107Z, 16572
2023-11-07T12:04:00.282Z, 18515
2023-11-07T12:06:00.196Z, 17589
2023-11-07T12:08:00.116Z, 15997
2023-11-07T12:10:00.103Z, 15759
2023-11-07T12:12:00.150Z, 13513
2023-11-07T12:14:00.085Z, 12171
2023-11-07T12:16:00.104Z, 11344
2023-11-07T12:18:00.554Z, 11669
2023-11-07T12:20:00.124Z, 11346
2023-11-07T12:22:00.097Z, 10647
2023-11-07T12:24:00.199Z, 10570
2023-11-07T12:26:00.124Z, 11601
2023-11-07T12:28:00.125Z, 11681
2023-11-07T12:30:00.167Z, 9596
2023-11-07T12:32:00.120Z, 9480
2023-11-07T12:34:00.205Z, 10655
2023-11-07T12:36:00.189Z, 10899
2023-11-07T12:38:00.113Z, 9605
2023-11-07T12:40:00.114Z, 9879
2023-11-07T12:42:00.124Z, 9695
2023-11-07T12:44:00.092Z, 7850
2023-11-07T12:46:00.101Z, 8317
2023-11-07T12:48:00.327Z, 10477
2023-11-07T12:50:00.133Z, 13188
2023-11-07T12:52:02.162Z, 10672
2023-11-07T12:54:00.166Z, 6850
2023-11-07T12:56:00.105Z, 6530
2023-11-07T12:58:00.133Z, 7380
2023-11-07T13:00:00.330Z, 6750
2023-11-07T13:02:00.097Z, 6783
2023-11-07T13:04:00.350Z, 7871
2023-11-07T13:06:00.531Z, 11985
2023-11-07T13:08:00.113Z, 9039
2023-11-07T13:10:00.195Z, 9638
2023-11-07T13:12:00.179Z, 9989
2023-11-07T13:14:00.099Z, 7575
2023-11-07T13:16:00.115Z, 6060
2023-11-07T13:18:00.468Z, 3245
2023-11-07T13:20:00.123Z, 2157
2023-11-07T13:22:00.118Z, 1930
2023-11-07T13:24:00.167Z, 1616
2023-11-07T13:26:00.160Z, 1290
2023-11-07T13:28:00.097Z, 1691
2023-11-07T13:30:00.211Z, 2264
2023-11-07T13:32:00.089Z, 2925
2023-11-07T13:34:00.247Z, 3700
2023-11-07T13:36:00.337Z, 4178
2023-11-07T13:38:00.104Z, 4100
2023-11-07T13:40:00.123Z, 3815
2023-11-07T13:42:00.176Z, 2990
2023-11-07T13:44:00.268Z, 4510
2023-11-07T13:46:00.426Z, 4859
2023-11-07T13:48:00.282Z, 3002
2023-11-07T13:50:00.147Z, 2317
2023-11-07T13:52:00.091Z, 2940
2023-11-07T13:54:00.202Z, 2412
2023-11-07T13:56:00.097Z, 2751
2023-11-07T13:58:00.139Z, 3153
2023-11-07T14:00:00.196Z, 4533
2023-11-07T14:02:00.104Z, 7181
2023-11-07T14:04:00.149Z, 13988
2023-11-07T14:06:00.155Z, 7151
2023-11-07T14:08:00.100Z, 12955
2023-11-07T14:10:00.101Z, 5364
2023-11-07T14:12:00.162Z, 6350
2023-11-07T14:14:00.200Z, 7520
2023-11-07T14:16:00.092Z, 6742
2023-11-07T14:18:00.204Z, 3860
2023-11-07T14:20:00.174Z, 3995
2023-11-07T14:22:00.125Z, 2947
2023-11-07T14:24:00.179Z, 2810
2023-11-07T14:26:00.097Z, 2876
2023-11-07T14:28:00.095Z, 3075
2023-11-07T14:30:08.913Z, 3098
2023-11-07T14:32:00.107Z, 3173
2023-11-07T14:34:00.290Z, 2825
2023-11-07T14:36:00.172Z, 3657
2023-11-07T14:38:00.100Z, 2937
2023-11-07T14:40:00.201Z, 2653
2023-11-07T14:42:00.140Z, 2840
2023-11-07T14:44:00.188Z, 3665
2023-11-07T14:46:00.130Z, 4529
2023-11-07T14:48:00.293Z, 4270
2023-11-07T14:50:00.160Z, 3575
2023-11-07T14:52:00.144Z, 2684
2023-11-07T14:54:00.154Z, 2042
2023-11-07T14:56:00.130Z, 1631
2023-11-07T14:58:00.110Z, 1696
2023-11-07T15:00:00.233Z, 1586
2023-11-07T15:02:00.196Z, 1876
2023-11-07T15:04:00.273Z, 2205
2023-11-07T15:06:02.837Z, 2305
2023-11-07T15:08:00.122Z, 2260
2023-11-07T15:10:00.183Z, 2527
2023-11-07T15:12:00.137Z, 2708
2023-11-07T15:14:00.094Z, 2690
2023-11-07T15:16:02.220Z, 2730
2023-11-07T15:18:00.288Z, 2486
2023-11-07T15:20:00.220Z, 2130
2023-11-07T15:22:00.105Z, 1858
2023-11-07T15:24:00.192Z, 1669
2023-11-07T15:26:00.096Z, 1524
2023-11-07T15:28:00.127Z, 1505
2023-11-07T15:30:00.187Z, 1366
2023-11-07T15:32:00.197Z, 1122
2023-11-07T15:34:00.407Z, 1052
2023-11-07T15:36:00.246Z, 910
2023-11-07T15:38:00.112Z, 715
2023-11-07T15:40:00.172Z, 601
2023-11-07T15:42:00.152Z, 535
2023-11-07T15:44:00.372Z, 485
2023-11-07T15:46:00.493Z, 451
2023-11-07T15:48:00.362Z, 394
2023-11-07T15:50:00.508Z, 336
2023-11-07T15:52:00.097Z, 289
2023-11-07T15:54:00.675Z, 245
2023-11-07T15:56:00.107Z, 205
2023-11-07T15:58:00.103Z, 160
2023-11-07T16:00:00.300Z, 118
2023-11-07T16:02:00.124Z, 80
2023-11-07T16:04:00.198Z, 47
2023-11-07T16:06:00.239Z, 34
2023-11-07T16:08:00.126Z, 20
2023-11-07T16:10:00.146Z, 15
2023-11-07T16:12:00.155Z, 12
2023-11-07T16:14:00.101Z, 9
2023-11-07T16:16:00.110Z, 5
2023-11-07T16:18:00.383Z, 3
2023-11-07T16:20:00.166Z, 1
2023-11-07T16:22:00.099Z, 1
2023-11-07T16:24:00.295Z, 0
2023-11-07T16:26:00.115Z, 0
2023-11-07T16:28:00.780Z, 0
2023-11-07T16:30:00.178Z, 0
2023-11-07T16:32:00.093Z, 0
2023-11-07T16:34:00.181Z, 0
2023-11-07T16:36:00.138Z, 0
2023-11-07T16:38:00.186Z, 0
2023-11-07T16:40:00.147Z, 0
2023-11-07T16:42:00.191Z, 0
2023-11-07T16:44:00.137Z, 0
2023-11-07T16:46:00.094Z, 0
2023-11-07T16:48:00.253Z, 0
2023-11-07T16:50:00.208Z, 0
2023-11-07T16:52:00.251Z, 0
2023-11-07T16:54:00.156Z, 0
2023-11-07T16:56:00.105Z, 0
2023-11-07T16:58:00.091Z, 0
2023-11-07T17:00:00.975Z, 0
2023-11-07T17:02:00.093Z, 0
2023-11-07T17:04:00.268Z, 0
2023-11-07T17:06:00.130Z, 0
2023-11-07T17:08:00.120Z, 0
2023-11-07T17:10:00.151Z, 0
2023-11-07T17:12:00.173Z, 0
2023-11-07T17:14:00.091Z, 0
2023-11-07T17:16:00.111Z, 0
2023-11-07T17:18:00.222Z, 0
2023-11-07T17:20:00.142Z, 0
2023-11-07T17:22:00.098Z, 0
2023-11-07T17:24:00.149Z, 0
2023-11-07T17:26:00.112Z, 0
2023-11-07T17:28:00.116Z, 0
2023-11-07T17:30:00.210Z, 0
2023-11-07T17:32:00.097Z, 0
2023-11-07T17:34:00.185Z, 0
2023-11-07T17:36:00.158Z, 0
2023-11-07T17:38:00.096Z, 0
2023-11-07T17:40:00.224Z, 0
2023-11-07T17:42:00.377Z, 0
2023-11-07T17:44:00.205Z, 0
2023-11-07T17:46:00.093Z, 0
2023-11-07T17:48:00.327Z, 0
2023-11-07T17:50:00.122Z, 0
2023-11-07T17:52:00.112Z, 0
2023-11-07T17:54:00.163Z, 0
2023-11-07T17:56:00.096Z, 0
2023-11-07T17:58:00.108Z, 0
2023-11-07T18:00:00.339Z, 0
2023-11-07T18:02:00.090Z, 0
2023-11-07T18:04:00.205Z, 0
2023-11-07T18:06:00.252Z, 0
2023-11-07T18:08:01.525Z, 0
2023-11-07T18:10:00.200Z, 0
2023-11-07T18:12:00.215Z, 0
2023-11-07T18:14:00.105Z, 0
2023-11-07T18:16:00.091Z, 0
2023-11-07T18:18:00.287Z, 0
2023-11-07T18:20:00.134Z, 0
2023-11-07T18:22:00.101Z, 0
2023-11-07T18:24:00.124Z, 0
2023-11-07T18:26:00.099Z, 0
2023-11-07T18:28:00.100Z, 0
2023-11-07T18:30:00.215Z, 0
2023-11-07T18:32:00.101Z, 0
2023-11-07T18:34:09.002Z, 0
2023-11-07T18:36:00.164Z, 0
2023-11-07T18:38:00.121Z, 0
2023-11-07T18:40:00.183Z, 0
2023-11-07T18:42:00.501Z, 0
2023-11-07T18:44:00.098Z, 0
2023-11-07T18:46:00.152Z, 0
2023-11-07T18:48:00.172Z, 0
2023-11-07T18:50:00.105Z, 0
2023-11-07T18:52:00.134Z, 0
2023-11-07T18:54:00.157Z, 0
2023-11-07T18:56:00.139Z, 0
2023-11-07T18:58:00.308Z, 0
2023-11-07T19:00:00.280Z, 0
2023-11-07T19:02:00.109Z, 0
2023-11-07T19:04:00.301Z, 0
2023-11-07T19:06:00.230Z, 0
2023-11-07T19:08:00.132Z, 0
2023-11-07T19:10:00.117Z, 0
2023-11-07T19:12:00.158Z, 0
2023-11-07T19:14:00.118Z, 0
2023-11-07T19:16:01.432Z, 0
2023-11-07T19:18:00.180Z, 0
2023-11-07T19:20:00.122Z, 0
2023-11-07T19:22:00.106Z, 0
2023-11-07T19:24:00.173Z, 0
2023-11-07T19:26:00.101Z, 0
2023-11-07T19:28:00.127Z, 0
2023-11-07T19:30:00.269Z, 0
2023-11-07T19:32:00.124Z, 0
2023-11-07T19:34:00.166Z, 0
2023-11-07T19:36:00.206Z, 0
2023-11-07T19:38:00.119Z, 0
2023-11-07T19:40:00.170Z, 0
2023-11-07T19:42:00.271Z, 0
2023-11-07T19:44:00.108Z, 0
2023-11-07T19:46:00.104Z, 0
2023-11-07T19:48:00.277Z, 0
2023-11-07T19:50:00.106Z, 0
2023-11-07T19:52:00.108Z, 0
2023-11-07T19:54:00.149Z, 0
2023-11-07T19:56:00.107Z, 0
2023-11-07T19:58:00.106Z, 0
2023-11-07T20:00:00.247Z, 0
2023-11-07T20:02:00.149Z, 0
2023-11-07T20:04:00.279Z, 0
2023-11-07T20:06:00.118Z, 0
2023-11-07T20:12:00.176Z, 0
2023-11-07T20:14:00.196Z, 0
2023-11-07T20:16:00.123Z, 0
2023-11-07T20:18:00.198Z, 0
2023-11-07T20:20:00.121Z, 0
2023-11-07T20:22:00.095Z, 0
2023-11-07T20:24:00.221Z, 0
2023-11-07T20:26:00.137Z, 0
2023-11-07T20:28:00.109Z, 0
2023-11-07T20:30:00.307Z, 0
2023-11-07T20:32:00.108Z, 0
2023-11-07T20:34:00.180Z, 0
2023-11-07T20:36:00.108Z, 0
2023-11-07T20:38:00.091Z, 0
2023-11-07T20:40:00.200Z, 0
2023-11-07T20:42:00.122Z, 0
2023-11-07T20:44:00.098Z, 0
2023-11-07T20:46:00.090Z, 0
2023-11-07T20:48:00.204Z, 0
2023-11-07T20:50:00.112Z, 0
2023-11-07T20:52:00.095Z, 0
2023-11-07T20:54:00.108Z, 0
2023-11-07T20:56:00.097Z, 0
2023-11-07T20:58:04.346Z, 0
2023-11-07T21:00:00.148Z, 0
2023-11-07T21:02:00.087Z, 0
2023-11-07T21:04:00.199Z, 0
2023-11-07T21:06:00.185Z, 0
2023-11-07T21:08:00.087Z, 0
2023-11-07T21:10:00.114Z, 0
2023-11-07T21:12:00.125Z, 0
2023-11-07T21:14:00.110Z, 0
2023-11-07T21:16:00.099Z, 0
2023-11-07T21:18:00.131Z, 0
2023-11-07T21:20:00.111Z, 0
2023-11-07T21:22:00.279Z, 0
2023-11-07T21:24:00.135Z, 0
2023-11-07T21:26:00.114Z, 0
2023-11-07T21:28:00.093Z, 0
2023-11-07T21:30:00.142Z, 0
2023-11-07T21:32:00.246Z, 0
2023-11-07T21:34:00.181Z, 0
2023-11-07T21:36:00.118Z, 0
2023-11-07T21:38:00.090Z, 0
2023-11-07T21:40:00.121Z, 0
2023-11-07T21:42:00.121Z, 0
2023-11-07T21:44:00.099Z, 0
2023-11-07T21:46:00.113Z, 0
2023-11-07T21:48:00.176Z, 0
2023-11-07T21:50:00.166Z, 0
2023-11-07T21:52:00.105Z, 0
2023-11-07T21:54:00.190Z, 0
2023-11-07T21:56:00.100Z, 0
2023-11-07T21:58:00.110Z, 0
2023-11-07T22:00:00.179Z, 0
2023-11-07T22:02:00.137Z, 0
2023-11-07T22:04:00.557Z, 0
2023-11-07T22:06:00.143Z, 0
2023-11-07T22:08:00.103Z, 0
2023-11-07T22:10:00.120Z, 0
2023-11-07T22:12:00.134Z, 0
2023-11-07T22:14:00.123Z, 0
2023-11-07T22:16:00.113Z, 0
2023-11-07T22:18:00.171Z, 0
2023-11-07T22:20:00.124Z, 0
2023-11-07T22:22:00.221Z, 0
2023-11-07T22:24:00.128Z, 0
2023-11-07T22:26:00.118Z, 0
2023-11-07T22:28:00.138Z, 0
2023-11-07T22:30:00.162Z, 0
2023-11-07T22:32:00.097Z, 0
2023-11-07T22:34:00.470Z, 0
2023-11-07T22:36:00.127Z, 0
2023-11-07T22:38:00.109Z, 0
2023-11-07T22:40:00.136Z, 0
2023-11-07T22:42:00.143Z, 0
2023-11-07T22:44:00.114Z, 0
2023-11-07T22:46:00.116Z, 0
2023-11-07T22:48:00.181Z, 0
2023-11-07T22:50:00.172Z, 0
2023-11-07T22:52:00.097Z, 0
2023-11-07T22:54:00.124Z, 0
2023-11-07T22:56:01.292Z, 0
2023-11-07T22:58:00.101Z, 0
2023-11-07T23:00:00.165Z, 0
2023-11-07T23:02:00.115Z, 0
2023-11-07T23:04:00.095Z, 0
2023-11-07T23:06:00.220Z, 0
2023-11-07T23:08:00.096Z, 0
2023-11-07T23:10:00.133Z, 0
2023-11-07T23:12:00.124Z, 0
2023-11-07T23:14:00.105Z, 0
2023-11-07T23:16:00.113Z, 0
2023-11-07T23:18:00.200Z, 0
2023-11-07T23:20:00.153Z, 0
2023-11-07T23:22:00.114Z, 0
2023-11-07T23:24:00.122Z, 0
2023-11-07T23:26:00.355Z, 0
2023-11-07T23:28:00.129Z, 0
2023-11-07T23:30:00.144Z, 0
2023-11-07T23:32:00.101Z, 0
2023-11-07T23:34:00.194Z, 0
2023-11-07T23:36:00.137Z, 0
2023-11-07T23:38:00.145Z, 0
2023-11-07T23:40:00.141Z, 0
2023-11-07T23:42:00.181Z, 0
2023-11-07T23:44:00.130Z, 0
2023-11-07T23:46:00.098Z, 0
2023-11-07T23:48:00.199Z, 0
2023-11-07T23:50:00.148Z, 0
2023-11-07T23:52:00.111Z, 0
2023-11-07T23:54:00.118Z, 0
2023-11-07T23:56:00.099Z, 0
2023-11-07T23:58:00.103Z, 0
